Time;durP1;ratioP1;P1;durP2;ratioP2;P2;SDS_P1;SDS_P2;PMS_P1;PMS_P2;Temp;Humidity;BMP_temperature;BMP_pressure;BME280_temperature;BME280_humidity;BME280_pressure;Samples;Min_cycle;Max_cycle;Signal;HPM_P1;HPM_P2
2024/04/11 00:01:18;;;;;;;5.70;1.70;;;5.70;99.90;;;6.59;100.00;99603.41;5521761;25;21030;-75
2024/04/11 00:03:49;;;;;;;4.93;1.80;;;5.70;99.90;;;6.56;100.00;99600.25;5520296;25;20483;-76
2024/04/11 00:06:18;;;;;;;3.77;1.50;;;5.60;99.90;;;6.47;100.00;99599.22;5516018;25;20656;-76
2024/04/11 00:08:48;;;;;;;5.30;1.90;;;5.60;99.90;;;6.54;100.00;99600.38;5519196;25;20533;-75
2024/04/11 00:11:18;;;;;;;3.20;1.73;;;5.70;99.90;;;6.47;100.00;99598.41;5519069;25;20628;-76
2024/04/11 00:13:48;;;;;;;2.87;1.60;;;5.50;99.90;;;6.45;100.00;99603.72;5517627;25;20593;-75
2024/04/11 00:16:18;;;;;;;1.97;1.50;;;5.50;99.90;;;6.41;100.00;99596.28;5519708;25;21042;-75
2024/04/11 00:18:49;;;;;;;2.70;2.00;;;5.50;99.90;;;6.31;100.00;99587.59;5519494;25;20481;-75
2024/04/11 00:21:18;;;;;;;2.50;1.50;;;5.40;99.90;;;6.23;100.00;99588.19;5521565;25;20493;-76
2024/04/11 00:23:50;;;;;;;4.70;1.40;;;5.30;99.90;;;6.23;100.00;99590.78;5521388;25;21144;-75
2024/04/11 00:26:18;;;;;;;1.60;1.50;;;5.30;99.90;;;6.17;100.00;99588.69;5526889;25;20810;-75
2024/04/11 00:28:49;;;;;;;3.77;1.67;;;5.30;99.90;;;6.02;100.00;99592.47;5527983;25;20481;-75
2024/04/11 00:31:19;;;;;;;2.03;1.60;;;5.10;99.90;;;6.02;100.00;99584.69;5530715;25;20486;-75
2024/04/11 00:34:12;;;;;;;3.10;1.70;;;5.10;99.90;;;6.12;100.00;99588.19;5528429;25;20536;-76
2024/04/11 00:36:41;;;;;;;1.77;1.47;;;5.20;99.90;;;6.12;100.00;99587.38;5529742;25;20478;-75
2024/04/11 00:39:17;;;;;;;3.73;1.63;;;5.10;99.90;;;5.95;100.00;99583.50;5528561;25;20730;-75
2024/04/11 00:41:46;;;;;;;2.30;1.40;;;4.90;99.90;;;5.97;100.00;99584.22;5525136;25;20594;-75
2024/04/11 00:44:19;;;;;;;2.73;1.67;;;5.00;99.90;;;5.98;100.00;99588.47;5526106;25;20493;-75
2024/04/11 00:46:51;;;;;;;2.50;1.70;;;5.00;99.90;;;5.94;100.00;99576.66;5525490;25;21161;-75
2024/04/11 00:49:23;;;;;;;2.97;1.73;;;5.00;99.90;;;5.93;100.00;99588.84;5527741;25;21042;-75
2024/04/11 00:51:52;;;;;;;2.60;1.47;;;5.00;99.90;;;5.95;100.00;99584.34;5527340;25;20475;-75
2024/04/11 00:54:23;;;;;;;2.47;1.70;;;5.10;99.90;;;5.93;100.00;99578.47;5528517;25;20473;-75
2024/04/11 00:56:50;;;;;;;3.63;1.50;;;5.00;99.90;;;5.84;100.00;99579.13;5528921;25;20598;-75
2024/04/11 00:59:20;;;;;;;13.47;1.80;;;5.00;99.90;;;5.80;100.00;99574.28;5522266;25;20537;-75
2024/04/11 01:01:51;;;;;;;3.40;2.37;;;4.90;99.90;;;5.81;100.00;99573.34;5525027;25;20588;-76
2024/04/11 01:04:22;;;;;;;4.63;2.20;;;4.90;99.90;;;5.79;100.00;99573.47;5525895;25;21143;-75
2024/04/11 01:07:06;;;;;;;2.97;1.70;;;4.90;99.90;;;5.80;100.00;99567.31;5524961;25;20544;-75
2024/04/11 01:09:38;;;;;;;2.30;1.60;;;4.90;99.90;;;5.80;100.00;99571.69;5525075;25;21231;-75
2024/04/11 01:12:07;;;;;;;3.10;1.93;;;4.90;99.90;;;5.80;100.00;99567.31;5525727;25;21063;-75
2024/04/11 01:14:37;;;;;;;3.33;1.73;;;4.90;99.90;;;5.81;100.00;99562.97;5524524;25;20994;-76
2024/04/11 01:17:09;;;;;;;3.70;1.77;;;4.90;99.90;;;5.69;100.00;99571.72;5523596;25;20544;-75
2024/04/11 01:19:40;;;;;;;3.40;1.80;;;4.70;99.90;;;5.58;100.00;99568.19;5523442;25;20537;-75
2024/04/11 01:22:10;;;;;;;9.97;1.97;;;4.70;99.90;;;5.59;100.00;99564.63;5527328;25;20592;-75
2024/04/11 01:24:43;;;;;;;5.80;1.83;;;4.70;99.90;;;5.63;100.00;99566.97;5528224;25;20490;-75
2024/04/11 01:27:14;;;;;;;4.03;1.57;;;4.70;99.90;;;5.59;100.00;99564.63;5527121;25;21721;-75
2024/04/11 01:29:45;;;;;;;7.20;1.83;;;4.70;99.90;;;5.57;100.00;99569.09;5524135;25;20537;-75
2024/04/11 01:32:13;;;;;;;2.43;1.47;;;4.70;99.90;;;5.52;100.00;99568.63;5525436;25;20468;-75
2024/04/11 01:34:44;;;;;;;4.97;1.53;;;4.60;99.90;;;5.61;100.00;99568.88;5523177;25;20485;-75
2024/04/11 01:37:12;;;;;;;3.57;1.50;;;4.70;99.90;;;5.51;100.00;99569.59;5527309;25;20462;-75
2024/04/11 01:39:44;;;;;;;6.13;2.00;;;4.60;99.90;;;5.53;100.00;99559.91;5527174;25;20590;-75
2024/04/11 01:42:12;;;;;;;2.13;1.50;;;4.70;99.90;;;5.53;100.00;99566.84;5526819;25;20485;-75
2024/04/11 01:44:42;;;;;;;2.40;1.30;;;4.60;99.90;;;5.46;100.00;99563.09;5526934;25;20473;-75
2024/04/11 01:47:14;;;;;;;6.60;1.37;;;4.60;99.90;;;5.42;100.00;99575.47;5523987;25;20549;-76
2024/04/11 01:49:45;;;;;;;3.97;1.70;;;4.60;99.90;;;5.40;100.00;99572.16;5523584;25;20465;-75
2024/04/11 01:52:13;;;;;;;5.90;1.40;;;4.50;99.90;;;5.41;100.00;99571.22;5527915;25;21025;-75
2024/04/11 01:54:46;;;;;;;2.90;1.97;;;4.50;99.90;;;5.41;100.00;99576.41;5532121;25;20473;-75
2024/04/11 01:57:14;;;;;;;4.07;2.10;;;4.50;99.90;;;5.33;100.00;99570.97;5526591;25;21026;-76
2024/04/11 01:59:44;;;;;;;2.17;1.50;;;4.50;99.90;;;5.30;100.00;99573.81;5526225;25;21086;-75
2024/04/11 02:02:14;;;;;;;4.30;1.73;;;4.40;99.90;;;5.31;100.00;99580.63;5530992;25;21870;-75
2024/04/11 02:04:44;;;;;;;7.17;2.03;;;4.40;99.90;;;5.32;100.00;99582.28;5527251;25;20816;-75
2024/04/11 02:07:12;;;;;;;2.60;1.40;;;4.40;99.90;;;5.23;100.00;99587.34;5532642;25;20524;-75
2024/04/11 02:09:42;;;;;;;2.20;1.67;;;4.30;99.90;;;5.24;100.00;99589.81;5529946;25;20871;-75
2024/04/11 02:12:12;;;;;;;3.47;1.70;;;4.20;99.90;;;5.26;100.00;99590.53;5530467;25;21471;-75
2024/04/11 02:14:42;;;;;;;3.30;1.60;;;4.30;99.90;;;5.15;100.00;99590.50;5526769;25;21209;-75
2024/04/11 02:17:10;;;;;;;4.10;1.90;;;4.30;99.90;;;5.08;100.00;99589.31;5529897;25;20523;-76
2024/04/11 02:19:43;;;;;;;3.10;2.07;;;4.20;99.90;;;5.02;100.00;99590.59;5528208;25;20476;-75
2024/04/11 02:22:11;;;;;;;5.70;1.40;;;4.20;99.90;;;5.01;100.00;99593.31;5530244;25;20619;-75
2024/04/11 02:24:41;;;;;;;1.70;1.40;;;4.30;99.90;;;4.97;100.00;99597.06;5531113;25;20536;-75
2024/04/11 02:27:11;;;;;;;3.10;1.60;;;4.10;99.90;;;5.01;100.00;99599.31;5529317;25;21232;-75
2024/04/11 02:29:42;;;;;;;3.20;1.60;;;4.20;99.90;;;5.03;100.00;99600.00;5529898;25;20497;-75
2024/04/11 02:32:09;;;;;;;3.20;1.70;;;4.20;99.90;;;5.04;100.00;99601.69;5528059;25;21327;-75
2024/04/11 02:34:40;;;;;;;3.00;1.80;;;4.20;99.90;;;4.99;100.00;99600.38;5530060;25;21038;-75
2024/04/11 02:37:08;;;;;;;4.10;1.50;;;4.20;99.90;;;4.87;100.00;99611.63;5532270;25;20529;-76
2024/04/11 02:39:38;;;;;;;3.57;1.73;;;4.00;99.90;;;4.89;100.00;99614.94;5524897;25;20893;-75
2024/04/11 02:42:06;;;;;;;3.03;1.60;;;4.00;99.90;;;4.91;100.00;99613.06;5526208;25;20481;-75
2024/04/11 02:44:40;;;;;;;3.10;1.70;;;4.00;99.90;;;4.93;100.00;99606.81;5525965;25;20468;-75
2024/04/11 02:47:10;;;;;;;4.30;1.70;;;4.10;99.90;;;5.02;100.00;99615.69;5525991;25;20626;-75
2024/04/11 02:49:40;;;;;;;6.30;1.97;;;4.10;99.90;;;5.00;100.00;99615.78;5527710;25;20515;-76
2024/04/11 02:52:11;;;;;;;1.73;1.47;;;4.10;99.90;;;4.99;100.00;99615.94;5526736;25;20464;-76
2024/04/11 02:54:40;;;;;;;2.20;1.67;;;4.10;99.90;;;5.04;100.00;99624.16;5526681;25;21672;-75
2024/04/11 02:57:10;;;;;;;3.20;1.50;;;4.10;99.90;;;4.99;100.00;99628.88;5525823;25;20477;-75
2024/04/11 02:59:41;;;;;;;1.70;1.40;;;4.10;99.90;;;4.97;100.00;99634.16;5526657;25;20588;-76
2024/04/11 03:02:11;;;;;;;4.70;2.07;;;4.10;99.90;;;4.93;100.00;99624.97;5526176;25;20473;-75
2024/04/11 03:04:39;;;;;;;3.37;1.73;;;4.00;99.90;;;4.90;100.00;99621.75;5527994;25;20468;-75
2024/04/11 03:07:09;;;;;;;2.37;1.70;;;4.00;99.90;;;4.91;100.00;99623.44;5527216;25;21080;-81
2024/04/11 03:09:37;;;;;;;2.47;1.40;;;4.00;99.90;;;4.89;100.00;99617.53;5523336;25;20477;-75
2024/04/11 03:12:07;;;;;;;3.13;1.90;;;4.00;99.90;;;4.88;100.00;99618.47;5527813;25;20469;-75
2024/04/11 03:14:36;;;;;;;1.73;1.50;;;4.00;99.90;;;4.87;100.00;99616.81;5523338;25;20533;-76
2024/04/11 03:17:09;;;;;;;2.63;1.60;;;4.00;99.90;;;4.81;100.00;99620.69;5524926;25;20537;-76
2024/04/11 03:19:36;;;;;;;6.00;1.60;;;4.00;99.90;;;4.79;100.00;99619.16;5521399;25;20527;-76
2024/04/11 03:22:07;;;;;;;2.90;1.57;;;3.90;99.90;;;4.83;100.00;99626.56;5518172;25;20471;-82
2024/04/11 03:24:34;;;;;;;2.40;1.50;;;3.90;99.90;;;4.85;100.00;99631.66;5519057;25;20472;-76
2024/04/11 03:27:05;;;;;;;2.60;1.60;;;4.00;99.90;;;4.84;100.00;99632.59;5520313;25;20590;-76
2024/04/11 03:29:33;;;;;;;4.83;1.80;;;4.00;99.90;;;4.85;100.00;99629.06;5522128;25;21230;-75
2024/04/11 03:32:03;;;;;;;3.00;1.40;;;3.90;99.90;;;4.76;100.00;99622.78;5528999;25;21093;-75
2024/04/11 03:34:33;;;;;;;1.87;1.60;;;3.80;99.90;;;4.76;100.00;99633.13;5527433;25;20879;-75
2024/04/11 03:37:05;;;;;;;1.70;1.60;;;3.80;99.90;;;4.72;100.00;99629.13;5526935;25;20545;-75
2024/04/11 03:39:32;;;;;;;2.07;1.50;;;3.90;99.90;;;4.66;100.00;99631.31;5526012;25;20564;-75
2024/04/11 03:42:02;;;;;;;3.50;1.70;;;3.80;99.90;;;4.69;100.00;99628.50;5525997;25;20617;-75
2024/04/11 03:44:35;;;;;;;3.33;1.40;;;3.90;99.90;;;4.67;100.00;99648.53;5527916;25;20479;-76
2024/04/11 03:47:08;;;;;;;1.63;1.53;;;3.70;99.90;;;4.68;100.00;99642.41;5527579;25;21152;-75
2024/04/11 03:49:41;;;;;;;1.80;1.57;;;3.80;99.90;;;4.67;100.00;99645.94;5526022;25;20574;-75
2024/04/11 03:52:09;;;;;;;7.63;1.83;;;3.80;99.90;;;4.68;100.00;99637.22;5528263;25;20484;-76
2024/04/11 03:54:39;;;;;;;1.50;1.33;;;3.80;99.90;;;4.74;100.00;99641.97;5531050;25;20476;-76
2024/04/11 03:57:07;;;;;;;3.20;1.50;;;3.90;99.90;;;4.65;100.00;99643.44;5526967;25;20485;-75
2024/04/11 03:59:37;;;;;;;1.70;1.60;;;3.70;99.90;;;4.60;100.00;99639.53;5527338;25;20466;-76
2024/04/11 04:02:04;;;;;;;3.73;1.30;;;3.70;99.90;;;4.58;100.00;99650.84;5528210;25;20531;-75
2024/04/11 04:04:35;;;;;;;1.93;1.40;;;3.70;99.90;;;4.58;100.00;99660.38;5523938;25;20457;-82
2024/04/11 04:07:07;;;;;;;1.53;1.10;;;3.70;99.90;;;4.53;100.00;99652.94;5524880;25;20574;-76
2024/04/11 04:09:38;;;;;;;2.47;1.87;;;3.60;99.90;;;4.58;100.00;99644.84;5521873;25;20465;-76
2024/04/11 04:12:06;;;;;;;1.40;1.30;;;3.60;99.90;;;4.50;100.00;99640.22;5521095;25;20529;-75
2024/04/11 04:14:37;;;;;;;4.73;1.73;;;3.50;99.90;;;4.56;100.00;99641.53;5524957;25;20465;-76
2024/04/11 04:17:05;;;;;;;1.87;1.60;;;3.60;99.90;;;4.51;100.00;99641.03;5527883;25;20474;-76
2024/04/11 04:19:35;;;;;;;2.00;1.50;;;3.70;99.90;;;4.50;100.00;99649.75;5526917;25;20469;-76
2024/04/11 04:22:08;;;;;;;3.47;1.77;;;3.60;99.90;;;4.47;100.00;99655.97;5527654;25;21099;-75
2024/04/11 04:24:38;;;;;;;2.03;1.37;;;3.60;99.90;;;4.48;100.00;99657.59;5527395;25;20474;-76
2024/04/11 04:27:06;;;;;;;2.03;1.60;;;3.50;99.90;;;4.47;100.00;99655.97;5524318;25;21119;-73
2024/04/11 04:29:38;;;;;;;1.60;1.50;;;3.50;99.90;;;4.37;100.00;99657.53;5522325;25;20556;-76
2024/04/11 04:32:08;;;;;;;1.57;1.47;;;3.50;99.90;;;4.33;100.00;99663.88;5524196;25;20797;-75
2024/04/11 04:34:39;;;;;;;2.72;1.80;;;3.50;99.90;;;4.34;100.00;99660.34;5521483;25;20381;-75
2024/04/11 04:37:11;;;;;;;3.07;1.50;;;3.50;99.90;;;4.32;100.00;99662.22;5527412;25;20283;-75
2024/04/11 04:39:43;;;;;;;4.37;1.70;;;3.40;99.90;;;4.16;100.00;99661.66;5530338;25;20552;-75
2024/04/11 04:42:13;;;;;;;5.20;1.80;;;3.30;99.90;;;4.11;100.00;99655.13;5527841;25;20496;-75
2024/04/11 04:44:43;;;;;;;4.03;2.07;;;3.20;99.90;;;4.06;100.00;99663.22;5527505;25;20484;-75
2024/04/11 04:47:16;;;;;;;1.40;1.10;;;3.20;99.90;;;4.05;100.00;99669.31;5525974;25;21149;-75
2024/04/11 04:49:48;;;;;;;5.40;1.70;;;3.20;99.90;;;4.00;100.00;99676.56;5525914;25;21599;-75
2024/04/11 04:52:18;;;;;;;11.80;1.77;;;3.10;99.90;;;3.94;100.00;99667.47;5527724;25;20489;-74
2024/04/11 04:54:51;;;;;;;4.37;2.30;;;3.10;99.90;;;3.99;100.00;99660.19;5527684;25;20523;-75
2024/04/11 04:57:19;;;;;;;2.00;1.60;;;3.10;99.90;;;3.91;100.00;99661.69;5530176;25;20462;-75
2024/04/11 04:59:49;;;;;;;4.50;2.07;;;3.00;99.90;;;3.90;100.00;99676.38;5529639;25;21097;-75
2024/04/11 05:02:17;;;;;;;1.80;1.37;;;2.90;99.90;;;3.93;100.00;99680.50;5530363;25;20483;-75
2024/04/11 05:04:49;;;;;;;1.60;1.50;;;2.90;99.90;;;3.83;100.00;99685.47;5525963;25;20469;-75
2024/04/11 05:07:20;;;;;;;2.17;1.80;;;2.90;99.90;;;3.91;100.00;99692.72;5529185;25;20569;-75
2024/04/11 05:09:50;;;;;;;2.17;1.73;;;3.10;99.90;;;3.95;100.00;99700.19;5530414;25;20797;-75
2024/04/11 05:12:19;;;;;;;4.20;1.60;;;3.10;99.90;;;3.87;100.00;99693.88;5527559;25;20519;-75
2024/04/11 05:14:52;;;;;;;2.03;1.83;;;3.00;99.90;;;3.87;100.00;99696.44;5527244;25;20539;-75
2024/04/11 05:17:21;;;;;;;4.60;2.00;;;2.90;99.90;;;3.96;100.00;99696.66;5528644;25;20524;-75
2024/04/11 05:19:52;;;;;;;2.50;2.10;;;3.20;99.90;;;3.99;100.00;99695.63;5528035;25;20476;-75
2024/04/11 05:22:23;;;;;;;2.40;1.70;;;3.00;99.90;;;4.02;100.00;99690.25;5525553;25;20586;-75
2024/04/11 05:24:53;;;;;;;4.80;1.77;;;3.10;99.90;;;4.01;100.00;99692.00;5530429;25;20469;-75
2024/04/11 05:27:20;;;;;;;3.37;1.70;;;3.00;99.90;;;4.13;100.00;99697.28;5532120;25;20477;-75
2024/04/11 05:29:51;;;;;;;4.00;2.50;;;3.10;99.90;;;4.21;100.00;99692.38;5531884;25;20561;-75
2024/04/11 05:32:18;;;;;;;4.60;1.70;;;3.20;99.90;;;4.26;100.00;99698.91;5533150;25;20458;-75
2024/04/11 05:34:49;;;;;;;3.17;1.37;;;3.40;99.90;;;4.34;100.00;99706.16;5538203;25;21129;-75
2024/04/11 05:37:17;;;;;;;6.30;2.07;;;3.40;99.90;;;4.41;100.00;99697.81;5530819;25;21034;-75
2024/04/11 05:39:50;;;;;;;3.30;1.63;;;3.50;99.90;;;4.43;100.00;99688.19;5534099;25;20472;-75
2024/04/11 05:42:17;;;;;;;4.30;2.27;;;3.50;99.90;;;4.46;100.00;99698.34;5528376;25;20582;-75
2024/04/11 05:44:47;;;;;;;14.00;2.10;;;3.60;99.90;;;4.48;100.00;99699.03;5533518;25;20523;-75
2024/04/11 05:47:15;;;;;;;6.63;2.00;;;3.70;99.90;;;4.54;100.00;99692.63;5531282;25;20590;-75
2024/04/11 05:49:45;;;;;;;5.10;2.00;;;3.60;99.90;;;4.55;100.00;99697.69;5530548;25;20874;-75
2024/04/11 05:52:13;;;;;;;4.97;2.40;;;3.70;99.90;;;4.62;100.00;99695.47;5531013;25;20480;-75
2024/04/11 05:54:44;;;;;;;2.20;1.70;;;3.70;99.90;;;4.68;100.00;99691.63;5529042;25;21038;-75
2024/04/11 05:57:14;;;;;;;3.50;2.10;;;3.80;99.90;;;4.72;100.00;99691.28;5530764;25;20563;-75
2024/04/11 05:59:45;;;;;;;11.00;2.87;;;3.80;99.90;;;4.74;100.00;99688.59;5530849;25;20583;-75
2024/04/11 06:02:13;;;;;;;2.60;1.87;;;3.80;99.90;;;4.78;100.00;99682.28;5529940;25;20487;-75
2024/04/11 06:04:45;;;;;;;3.10;2.40;;;3.80;99.90;;;4.88;100.00;99683.25;5528133;25;20473;-75
2024/04/11 06:07:14;;;;;;;6.30;2.33;;;4.00;99.90;;;4.91;100.00;99673.50;5527410;25;20485;-75
2024/04/11 06:09:44;;;;;;;4.90;2.33;;;4.00;99.90;;;4.98;100.00;99666.94;5531503;25;20595;-75
2024/04/11 06:12:14;;;;;;;6.83;2.17;;;4.10;99.90;;;5.06;100.00;99671.56;5530447;25;20521;-76
2024/04/11 06:14:44;;;;;;;6.30;2.40;;;4.20;99.90;;;5.10;100.00;99677.34;5529536;25;20481;-75
2024/04/11 06:17:12;;;;;;;3.67;2.70;;;4.30;99.90;;;5.16;100.00;99674.31;5530405;25;20530;-75
2024/04/11 06:19:42;;;;;;;3.60;2.17;;;4.30;99.90;;;5.24;100.00;99677.16;5530486;25;20484;-75
2024/04/11 06:22:11;;;;;;;3.87;2.10;;;4.30;99.90;;;5.31;100.00;99673.19;5530598;25;20481;-75
2024/04/11 06:24:42;;;;;;;3.57;2.57;;;4.40;99.90;;;5.32;100.00;99665.28;5532651;25;20518;-75
2024/04/11 06:27:09;;;;;;;5.10;3.33;;;4.40;99.90;;;5.36;100.00;99661.53;5529581;25;20471;-76
2024/04/11 06:29:42;;;;;;;6.43;2.80;;;4.40;99.90;;;5.46;100.00;99657.28;5531139;25;20473;-76
2024/04/11 06:32:12;;;;;;;5.50;3.60;;;4.60;99.90;;;5.51;100.00;99655.19;5532218;25;20464;-75
2024/04/11 06:34:43;;;;;;;5.97;3.40;;;4.60;99.90;;;5.54;100.00;99654.97;5531111;25;20473;-75
2024/04/11 06:37:11;;;;;;;6.93;2.83;;;4.70;99.90;;;5.59;100.00;99652.81;5528895;25;20596;-77
2024/04/11 06:39:41;;;;;;;4.90;2.70;;;4.70;99.90;;;5.68;100.00;99647.91;5529148;25;20806;-75
2024/04/11 06:42:13;;;;;;;8.00;2.60;;;4.80;99.90;;;5.74;100.00;99650.00;5526483;25;21113;-75
2024/04/11 06:44:48;;;;;;;10.40;2.80;;;4.80;99.90;;;5.80;100.00;99665.13;5528549;25;20462;-76
2024/04/11 06:47:18;;;;;;;5.30;2.70;;;4.90;99.90;;;5.79;100.00;99673.88;5528930;25;20567;-75
2024/04/11 06:50:00;;;;;;;5.97;2.83;;;4.90;99.90;;;5.85;100.00;99673.38;5528381;25;20493;-75
2024/04/11 06:52:29;;;;;;;6.53;3.60;;;4.90;99.90;;;5.92;100.00;99670.25;5530563;25;20587;-76
2024/04/11 06:54:59;;;;;;;4.43;2.40;;;5.00;99.90;;;6.01;100.00;99668.69;5530220;25;20465;-76
2024/04/11 06:57:27;;;;;;;7.43;2.87;;;5.10;99.90;;;6.08;100.00;99665.50;5530862;25;20468;-76
2024/04/11 07:00:01;;;;;;;4.40;2.30;;;5.20;99.90;;;6.14;100.00;99673.78;5528348;25;20904;-75
2024/04/11 07:02:30;;;;;;;4.73;2.40;;;5.20;99.90;;;6.23;100.00;99670.47;5531718;25;20587;-75
2024/04/11 07:05:02;;;;;;;7.37;2.60;;;5.30;99.90;;;6.31;100.00;99670.72;5529080;25;20518;-75
2024/04/11 07:07:30;;;;;;;12.17;2.30;;;5.40;99.90;;;6.39;100.00;99673.50;5529672;25;20476;-75
2024/04/11 07:10:10;;;;;;;2.87;1.50;;;5.50;99.90;;;6.49;100.00;99670.06;5529744;25;20488;-75
2024/04/11 07:12:41;;;;;;;5.30;1.70;;;5.60;99.90;;;6.63;100.00;99670.78;5527582;25;20534;-75
2024/04/11 07:15:18;;;;;;;5.33;1.70;;;5.80;99.90;;;6.75;100.00;99659.38;5532496;25;20467;-75
2024/04/11 07:17:56;;;;;;;2.80;2.07;;;5.90;99.90;;;6.87;100.00;99661.81;5528601;25;20478;-75
2024/04/11 07:20:31;;;;;;;2.83;1.80;;;6.00;99.90;;;7.01;100.00;99656.31;5531018;25;20551;-75
2024/04/11 07:22:59;;;;;;;8.53;2.10;;;6.20;99.90;;;7.12;100.00;99663.25;5530204;25;20533;-75
2024/04/11 07:25:35;;;;;;;3.87;2.03;;;6.40;99.90;;;7.23;100.00;99664.97;5531066;25;20508;-75
2024/04/11 07:28:06;;;;;;;2.80;2.00;;;6.50;99.90;;;7.36;100.00;99666.44;5528983;25;20502;-76
2024/04/11 07:30:40;;;;;;;2.67;1.87;;;6.60;99.90;;;7.47;100.00;99669.00;5530894;25;20483;-76
2024/04/11 07:33:07;;;;;;;2.77;1.60;;;6.80;99.90;;;7.60;100.00;99668.81;5531582;25;20584;-75
2024/04/11 07:35:39;;;;;;;4.53;1.87;;;6.90;99.90;;;7.73;100.00;99677.25;5529996;25;20801;-75
2024/04/11 07:38:07;;;;;;;2.70;1.77;;;7.10;99.90;;;7.86;100.00;99671.81;5529313;25;20480;-76
2024/04/11 07:40:45;;;;;;;4.73;1.87;;;7.20;99.90;;;7.99;100.00;99673.25;5530694;25;20593;-75
2024/04/11 07:43:13;;;;;;;2.80;1.87;;;7.40;99.90;;;8.15;100.00;99680.59;5529834;25;20476;-75
2024/04/11 07:45:47;;;;;;;4.63;1.87;;;7.50;99.90;;;8.29;100.00;99682.88;5529213;25;20553;-76
2024/04/11 07:48:16;;;;;;;5.73;1.80;;;7.60;99.90;;;8.44;100.00;99686.75;5530396;25;20891;-76
2024/04/11 07:50:50;;;;;;;5.43;1.63;;;7.80;99.90;;;8.60;100.00;99696.69;5526125;25;20472;-76
2024/04/11 07:53:18;;;;;;;9.50;2.00;;;7.90;99.90;;;8.72;100.00;99692.16;5530072;25;20529;-75
2024/04/11 07:55:51;;;;;;;4.40;1.80;;;8.10;99.90;;;8.86;100.00;99692.59;5527465;25;20492;-76
2024/04/11 07:58:19;;;;;;;9.33;2.07;;;8.20;99.90;;;9.05;100.00;99683.97;5528067;25;20485;-76
2024/04/11 08:00:54;;;;;;;2.73;1.13;;;8.40;99.90;;;9.22;100.00;99685.91;5531499;25;20479;-76
2024/04/11 08:03:22;;;;;;;5.07;1.57;;;8.60;99.90;;;9.37;100.00;99681.09;5530388;25;20533;-76
2024/04/11 08:05:52;;;;;;;2.30;1.67;;;8.80;99.90;;;9.51;100.00;99678.84;5529284;25;20485;-75
2024/04/11 08:08:20;;;;;;;3.53;1.50;;;8.90;99.90;;;9.65;100.00;99679.41;5531193;25;20885;-76
2024/04/11 08:11:02;;;;;;;2.77;1.37;;;9.10;99.90;;;9.78;100.00;99682.53;5531859;25;20529;-76
2024/04/11 08:13:30;;;;;;;3.20;2.00;;;9.30;99.90;;;9.93;100.00;99684.53;5530808;25;21110;-75
2024/04/11 08:16:09;;;;;;;5.57;1.50;;;9.40;99.90;;;10.04;100.00;99676.53;5531828;25;20463;-76
2024/04/11 08:18:37;;;;;;;2.00;1.43;;;9.50;99.90;;;10.16;100.00;99685.06;5528043;25;20570;-76
2024/04/11 08:21:08;;;;;;;5.63;1.50;;;9.60;99.90;;;10.31;100.00;99695.88;5528162;25;20526;-75
2024/04/11 08:23:37;;;;;;;5.40;1.77;;;9.70;99.90;;;10.46;100.00;99697.84;5526179;25;20601;-76
2024/04/11 08:26:08;;;;;;;8.53;1.67;;;9.90;99.90;;;10.59;100.00;99708.78;5531790;25;20526;-75
2024/04/11 08:28:37;;;;;;;4.30;1.50;;;9.90;99.90;;;10.77;100.00;99705.38;5529334;25;20560;-76
2024/04/11 08:31:11;;;;;;;5.00;1.67;;;10.10;99.90;;;10.87;100.00;99708.75;5529126;25;20540;-76
2024/04/11 08:33:39;;;;;;;6.23;1.30;;;10.20;99.90;;;10.98;100.00;99721.63;5527555;25;20920;-75
2024/04/11 08:36:12;;;;;;;5.80;1.40;;;10.30;99.90;;;11.07;100.00;99728.63;5529936;25;21083;-76
2024/04/11 08:38:41;;;;;;;2.83;1.40;;;10.40;99.90;;;11.19;100.00;99726.59;5527944;25;20585;-76
2024/04/11 08:41:13;;;;;;;2.90;1.20;;;10.50;99.90;;;11.27;100.00;99730.13;5529779;25;20487;-76
2024/04/11 08:43:45;;;;;;;3.97;1.30;;;10.60;99.90;;;11.37;100.00;99725.63;5524363;25;20473;-76
2024/04/11 08:46:18;;;;;;;6.17;1.70;;;10.70;99.90;;;11.49;100.00;99729.63;5530222;25;20516;-76
2024/04/11 08:48:46;;;;;;;2.83;1.20;;;10.80;99.90;;;11.60;100.00;99732.03;5529384;25;20472;-76
2024/04/11 08:51:21;;;;;;;6.60;1.40;;;10.90;99.20;;;11.67;100.00;99739.28;5525437;25;20494;-76
2024/04/11 08:53:54;;;;;;;4.33;1.50;;;10.90;99.40;;;11.79;100.00;99730.25;5531077;25;21032;-76
2024/04/11 08:56:34;;;;;;;4.93;1.50;;;11.00;99.10;;;11.89;100.00;99726.53;5526369;25;20531;-76
2024/04/11 08:59:05;;;;;;;6.27;1.53;;;11.20;99.60;;;11.93;100.00;99737.53;5530162;25;20466;-76
2024/04/11 09:01:38;;;;;;;4.97;1.77;;;11.20;99.30;;;12.02;100.00;99737.44;5526150;25;20484;-76
2024/04/11 09:04:06;;;;;;;4.93;1.60;;;11.30;99.20;;;12.09;100.00;99738.47;5530112;25;20519;-76
2024/04/11 09:06:36;;;;;;;4.23;1.50;;;11.40;99.30;;;12.25;100.00;99742.97;5529971;25;20475;-76
2024/04/11 09:09:10;;;;;;;5.67;1.63;;;11.60;99.10;;;12.35;100.00;99738.47;5528075;25;20474;-75
2024/04/11 09:11:44;;;;;;;3.57;1.80;;;11.60;99.00;;;12.44;100.00;99744.56;5524883;25;20892;-76
2024/04/11 09:14:12;;;;;;;7.83;1.40;;;11.70;98.50;;;12.51;100.00;99742.94;5526915;25;20894;-76
2024/04/11 09:16:45;;;;;;;1.93;1.27;;;11.80;98.50;;;12.56;91.56;99751.97;5527516;25;20580;-76
2024/04/11 09:19:13;;;;;;;2.87;1.37;;;11.80;96.90;;;12.60;89.57;99755.94;5527853;25;20532;-76
2024/04/11 09:21:47;;;;;;;4.03;1.33;;;11.80;96.60;;;12.67;87.46;99757.97;5530341;25;20590;-76
2024/04/11 09:24:17;;;;;;;6.17;1.27;;;11.90;96.30;;;12.71;83.36;99761.88;5527759;25;20474;-76
2024/04/11 09:26:49;;;;;;;3.90;1.40;;;11.90;95.10;;;12.78;82.21;99758.47;5527005;25;20488;-76
2024/04/11 09:29:20;;;;;;;6.13;1.33;;;12.00;95.50;;;12.82;81.18;99761.59;5524421;25;20836;-76
2024/04/11 09:31:56;;;;;;;2.40;1.30;;;12.00;95.10;;;12.92;82.65;99757.03;5526331;25;20478;-77
2024/04/11 09:34:32;;;;;;;5.20;1.30;;;12.20;95.90;;;13.03;83.86;99765.47;5525686;25;20476;-76
2024/04/11 09:37:03;;;;;;;3.27;1.57;;;12.30;96.00;;;13.08;80.14;99759.72;5526641;25;20490;-76
2024/04/11 09:39:49;;;;;;;5.07;1.47;;;12.30;95.00;;;13.05;79.88;99752.19;5526583;25;20471;-77
2024/04/11 09:42:18;;;;;;;2.80;1.43;;;12.20;95.10;;;13.12;80.72;99758.44;5528898;25;20558;-77
2024/04/11 09:44:52;;;;;;;3.27;1.50;;;12.30;95.50;;;13.19;80.43;99759.44;5524779;25;20539;-76
2024/04/11 09:47:26;;;;;;;3.30;1.43;;;12.40;95.10;;;13.23;79.19;99760.75;5525408;25;20487;-76
2024/04/11 09:50:00;;;;;;;4.97;1.40;;;12.40;95.00;;;13.28;79.37;99769.00;5526232;25;20496;-76
2024/04/11 09:52:34;;;;;;;3.90;1.47;;;12.50;95.00;;;13.35;79.57;99764.75;5529438;25;20483;-76
2024/04/11 09:55:07;;;;;;;2.93;1.40;;;12.60;94.90;;;13.43;80.68;99762.09;5527727;25;20468;-76
2024/04/11 09:57:41;;;;;;;3.90;1.03;;;12.70;95.20;;;13.44;78.50;99768.19;5525960;25;20594;-76
2024/04/11 10:00:22;;;;;;;3.87;1.97;;;12.70;95.10;;;13.53;78.47;99767.22;5529193;25;20471;-76
2024/04/11 10:02:53;;;;;;;3.97;1.43;;;12.80;95.00;;;13.56;77.32;99770.34;5526855;25;20473;-76
2024/04/11 10:05:25;;;;;;;3.70;1.20;;;12.80;94.80;;;13.58;76.30;99770.16;5523893;25;20485;-76
2024/04/11 10:08:01;;;;;;;3.33;1.20;;;12.80;94.40;;;13.59;75.62;99766.56;5529225;25;20474;-77
2024/04/11 10:10:42;;;;;;;8.40;1.37;;;12.80;94.30;;;13.65;76.11;99767.69;5530847;25;20470;-76
2024/04/11 10:13:12;;;;;;;4.53;1.17;;;12.90;94.60;;;13.71;76.23;99759.97;5531552;25;20514;-77
2024/04/11 10:15:43;;;;;;;2.83;1.40;;;13.00;94.30;;;13.71;75.49;99770.50;5532125;25;20619;-76
2024/04/11 10:18:15;;;;;;;3.30;1.20;;;12.90;94.10;;;13.79;76.29;99774.94;5534686;25;20575;-76
2024/04/11 10:20:59;;;;;;;7.13;1.30;;;13.00;94.50;;;13.82;76.78;99764.09;5530025;25;20847;-76
2024/04/11 10:23:29;;;;;;;2.33;1.10;;;13.10;94.60;;;13.89;76.47;99767.69;5536170;25;20480;-76
2024/04/11 10:25:59;;;;;;;3.23;1.47;;;13.20;94.60;;;13.91;76.46;99766.56;5531218;25;20472;-76
2024/04/11 10:28:38;;;;;;;2.23;1.10;;;13.20;94.60;;;13.97;76.22;99763.25;5532909;25;20548;-76
2024/04/11 10:31:12;;;;;;;6.90;1.70;;;13.20;94.70;;;14.05;77.42;99757.19;5531664;25;20488;-76
2024/04/11 10:33:52;;;;;;;8.33;1.87;;;13.30;94.90;;;14.08;76.36;99762.09;5527449;25;20531;-76
2024/04/11 10:36:25;;;;;;;3.00;1.20;;;13.30;94.60;;;14.01;74.60;99750.59;5532459;25;20483;-76
2024/04/11 10:38:55;;;;;;;2.30;1.10;;;13.20;94.00;;;14.03;75.22;99759.97;5532251;25;20522;-76